Time;durP1;ratioP1;P1;durP2;ratioP2;P2;SDS_P1;SDS_P2;PMS_P1;PMS_P2;Temp;Humidity;BMP_temperature;BMP_pressure;BME280_temperature;BME280_humidity;BME280_pressure;Samples;Min_cycle;Max_cycle;Signal;HPM_P1;HPM_P2
2023/12/14 00:01:13;;;;;;;11.68;7.15;;;4.80;99.90;;;;;;5060894;28;20641;-72
2023/12/14 00:03:44;;;;;;;13.70;7.20;;;4.80;99.90;;;;;;5036437;28;20060;-72
2023/12/14 00:06:10;;;;;;;15.13;8.18;;;4.70;99.90;;;;;;5047377;28;20087;-72
2023/12/14 00:08:36;;;;;;;12.32;7.35;;;4.80;99.90;;;;;;5042347;28;20082;-72
2023/12/14 00:11:06;;;;;;;14.13;6.78;;;4.70;99.90;;;;;;5067032;28;20036;-71
2023/12/14 00:13:32;;;;;;;16.65;7.35;;;4.70;99.90;;;;;;5050294;28;20040;-72
2023/12/14 00:15:58;;;;;;;11.27;6.85;;;4.70;99.90;;;;;;5061686;28;20384;-71
2023/12/14 00:18:24;;;;;;;10.77;6.28;;;4.70;99.90;;;;;;5058157;28;20052;-72
2023/12/14 00:20:49;;;;;;;11.23;6.60;;;4.70;99.90;;;;;;5049046;28;20039;-72
2023/12/14 00:23:15;;;;;;;9.15;6.55;;;4.70;99.90;;;;;;5050672;28;20488;-72
2023/12/14 00:25:40;;;;;;;10.13;6.40;;;4.70;99.90;;;;;;5056016;28;20069;-71
2023/12/14 00:28:06;;;;;;;11.55;6.47;;;4.70;99.90;;;;;;5036714;28;20036;-71
2023/12/14 00:30:32;;;;;;;12.35;6.20;;;4.70;99.90;;;;;;5038247;28;20166;-71
2023/12/14 00:32:57;;;;;;;11.45;6.30;;;4.70;99.90;;;;;;5058150;28;20368;-71
2023/12/14 00:35:23;;;;;;;12.85;6.82;;;4.70;99.90;;;;;;5053508;28;20033;-71
2023/12/14 00:37:48;;;;;;;12.13;6.72;;;4.70;99.90;;;;;;5054993;28;20120;-71
2023/12/14 00:40:14;;;;;;;9.82;6.25;;;4.60;99.90;;;;;;5051851;28;20068;-71
2023/12/14 00:42:40;;;;;;;12.38;6.82;;;4.70;99.90;;;;;;5073635;28;20326;-70
2023/12/14 00:45:06;;;;;;;13.02;7.30;;;4.70;99.90;;;;;;5053239;28;20094;-71
2023/12/14 00:47:31;;;;;;;11.45;6.22;;;4.70;99.90;;;;;;5064601;28;20040;-71
2023/12/14 00:49:57;;;;;;;14.32;7.18;;;4.70;99.90;;;;;;5032172;28;20487;-71
2023/12/14 00:52:22;;;;;;;12.63;6.28;;;4.70;99.90;;;;;;5031271;28;20059;-71
2023/12/14 00:54:48;;;;;;;12.65;7.15;;;4.70;99.90;;;;;;5052961;28;20033;-71
2023/12/14 00:57:14;;;;;;;11.07;6.05;;;4.70;99.90;;;;;;5066805;28;20062;-70
2023/12/14 00:59:40;;;;;;;11.52;6.65;;;4.60;99.90;;;;;;5057799;28;20554;-70
2023/12/14 01:02:06;;;;;;;12.95;6.13;;;4.60;99.90;;;;;;5080121;28;20399;-71
2023/12/14 01:04:32;;;;;;;12.75;6.72;;;4.60;99.90;;;;;;5060440;28;20051;-70
2023/12/14 01:06:57;;;;;;;11.48;6.70;;;4.60;99.90;;;;;;5055252;28;20041;-70
2023/12/14 01:09:23;;;;;;;11.52;6.22;;;4.60;99.90;;;;;;5054319;28;20492;-69
2023/12/14 01:11:49;;;;;;;12.43;6.63;;;4.60;99.90;;;;;;5079889;28;20025;-70
2023/12/14 01:14:14;;;;;;;12.93;6.47;;;4.60;99.90;;;;;;5051994;28;20029;-70
2023/12/14 01:16:40;;;;;;;11.98;6.20;;;4.50;99.90;;;;;;5054222;28;20083;-71
2023/12/14 01:19:06;;;;;;;11.13;7.60;;;4.50;99.90;;;;;;5042986;28;20545;-72
2023/12/14 01:21:32;;;;;;;15.68;6.35;;;4.50;99.90;;;;;;5065676;28;20040;-70
2023/12/14 01:23:58;;;;;;;11.52;5.60;;;4.50;99.90;;;;;;5061763;28;20084;-70
2023/12/14 01:26:23;;;;;;;11.32;6.22;;;4.50;99.90;;;;;;5057762;28;20113;-70
2023/12/14 01:28:49;;;;;;;11.05;5.70;;;4.40;99.90;;;;;;5053456;28;20041;-70
2023/12/14 01:31:15;;;;;;;10.93;5.70;;;4.50;99.90;;;;;;5067126;28;20488;-69
2023/12/14 01:33:40;;;;;;;10.98;5.90;;;4.50;99.90;;;;;;5083088;28;20054;-69
2023/12/14 01:36:06;;;;;;;11.98;6.00;;;4.40;99.90;;;;;;5058401;28;20041;-71
2023/12/14 01:38:33;;;;;;;10.45;5.65;;;4.40;99.90;;;;;;5062397;28;20538;-70
2023/12/14 01:40:59;;;;;;;10.73;5.35;;;4.50;99.90;;;;;;5066082;28;20058;-69
2023/12/14 01:43:25;;;;;;;11.45;5.70;;;4.50;99.90;;;;;;5066327;28;20048;-70
2023/12/14 01:45:50;;;;;;;12.10;5.45;;;4.40;99.90;;;;;;5056840;28;20109;-69
2023/12/14 01:48:16;;;;;;;13.40;6.10;;;4.40;99.90;;;;;;5058335;28;20060;-69
2023/12/14 01:50:42;;;;;;;11.38;5.65;;;4.40;99.90;;;;;;5048634;28;20032;-70
2023/12/14 01:53:07;;;;;;;11.02;5.38;;;4.40;99.90;;;;;;5070412;28;20048;-70
2023/12/14 01:55:33;;;;;;;11.77;6.10;;;4.40;99.90;;;;;;5067658;28;20116;-70
2023/12/14 01:57:59;;;;;;;12.60;5.53;;;4.40;99.90;;;;;;5056960;28;20131;-70
2023/12/14 02:00:38;;;;;;;9.88;5.63;;;4.40;99.90;;;;;;5049122;28;20465;-70
2023/12/14 02:03:04;;;;;;;11.60;5.50;;;4.40;99.90;;;;;;5059404;28;20032;-69
2023/12/14 02:05:30;;;;;;;12.80;5.97;;;4.40;99.90;;;;;;5045527;28;20074;-69
2023/12/14 02:07:56;;;;;;;11.50;5.97;;;4.40;99.90;;;;;;5061241;28;20487;-69
2023/12/14 02:10:22;;;;;;;11.95;6.10;;;4.50;99.90;;;;;;5068664;28;20074;-69
2023/12/14 02:12:48;;;;;;;11.23;5.70;;;4.40;99.90;;;;;;5075429;28;20511;-69
2023/12/14 02:15:13;;;;;;;12.25;5.75;;;4.40;99.90;;;;;;5066573;28;20071;-69
2023/12/14 02:17:39;;;;;;;10.88;4.70;;;4.40;99.90;;;;;;5075319;28;20040;-73
2023/12/14 02:20:05;;;;;;;12.40;6.25;;;4.50;99.90;;;;;;5052305;28;20120;-69
2023/12/14 02:22:49;;;;;;;9.93;5.05;;;4.40;99.90;;;;;;5050957;28;20044;-69
2023/12/14 02:25:15;;;;;;;12.90;5.85;;;4.40;99.90;;;;;;5052360;28;20171;-69
2023/12/14 02:27:41;;;;;;;10.13;5.60;;;4.40;99.90;;;;;;5036516;28;20116;-69
2023/12/14 02:30:07;;;;;;;13.25;6.63;;;4.40;99.90;;;;;;5051787;28;20056;-69
2023/12/14 02:32:32;;;;;;;9.77;5.28;;;4.30;99.90;;;;;;5058808;28;20044;-69
2023/12/14 02:34:58;;;;;;;10.90;5.30;;;4.30;99.90;;;;;;5050923;28;20051;-69
2023/12/14 02:37:24;;;;;;;12.27;5.57;;;4.30;99.90;;;;;;5052448;28;20122;-69
2023/12/14 02:39:49;;;;;;;12.18;5.57;;;4.40;99.90;;;;;;5055449;28;20131;-69
2023/12/14 02:42:15;;;;;;;12.52;5.47;;;4.30;99.90;;;;;;5054724;28;20037;-70
2023/12/14 02:44:40;;;;;;;10.25;5.32;;;4.40;99.90;;;;;;5057965;28;20032;-69
2023/12/14 02:47:06;;;;;;;12.98;5.80;;;4.30;99.90;;;;;;5080383;28;20381;-69
2023/12/14 02:49:33;;;;;;;11.00;5.90;;;4.40;99.90;;;;;;5060486;28;20037;-70
2023/12/14 02:51:59;;;;;;;11.32;5.72;;;4.40;99.90;;;;;;5052685;28;20090;-69
2023/12/14 02:54:24;;;;;;;12.13;5.07;;;4.40;99.90;;;;;;5041855;28;20120;-69
2023/12/14 02:56:50;;;;;;;12.95;5.60;;;4.40;99.90;;;;;;5068098;28;20038;-68
2023/12/14 02:59:16;;;;;;;16.70;6.40;;;4.50;99.90;;;;;;5067670;28;20159;-69
2023/12/14 03:01:41;;;;;;;12.23;5.70;;;4.40;99.90;;;;;;5051765;28;20045;-69
2023/12/14 03:04:07;;;;;;;12.55;6.55;;;4.40;99.90;;;;;;5054492;28;20396;-68
2023/12/14 03:06:33;;;;;;;16.02;6.97;;;4.40;99.90;;;;;;5059220;28;20040;-68
2023/12/14 03:08:59;;;;;;;14.75;6.82;;;4.40;99.90;;;;;;5055254;28;20040;-69
2023/12/14 03:11:25;;;;;;;14.20;6.50;;;4.40;99.90;;;;;;5065452;28;20063;-68
2023/12/14 03:13:51;;;;;;;13.55;6.75;;;4.40;99.90;;;;;;5063731;28;20154;-69
2023/12/14 03:16:21;;;;;;;18.25;6.80;;;4.40;99.90;;;;;;5069824;28;20554;-69
2023/12/14 03:18:47;;;;;;;18.03;6.77;;;4.40;99.90;;;;;;5059384;28;20128;-69
2023/12/14 03:21:13;;;;;;;15.88;6.75;;;4.40;99.90;;;;;;5040013;28;20348;-69
2023/12/14 03:23:38;;;;;;;18.48;7.75;;;4.40;99.90;;;;;;5043806;28;20466;-68
2023/12/14 03:26:04;;;;;;;15.23;7.10;;;4.50;99.90;;;;;;5050718;28;20041;-69
2023/12/14 03:28:30;;;;;;;19.45;8.02;;;4.50;99.90;;;;;;5047522;28;20120;-69
2023/12/14 03:30:55;;;;;;;21.77;7.43;;;4.40;99.90;;;;;;5073672;28;20036;-69
2023/12/14 03:33:22;;;;;;;15.63;7.55;;;4.50;99.90;;;;;;5047623;28;20207;-68
2023/12/14 03:35:47;;;;;;;15.25;7.50;;;4.50;99.90;;;;;;5058771;28;20037;-68
2023/12/14 03:38:13;;;;;;;18.75;8.60;;;4.40;99.90;;;;;;5056869;28;20043;-68
2023/12/14 03:40:39;;;;;;;20.05;7.90;;;4.50;99.90;;;;;;5058207;28;20066;-68
2023/12/14 03:43:05;;;;;;;17.30;7.78;;;4.40;99.90;;;;;;5059121;28;20067;-69
2023/12/14 03:45:31;;;;;;;16.48;7.00;;;4.50;99.90;;;;;;5053115;28;20492;-68
2023/12/14 03:47:56;;;;;;;20.63;8.02;;;4.50;99.90;;;;;;5059011;28;20041;-67
2023/12/14 03:50:22;;;;;;;16.80;6.88;;;4.50;99.90;;;;;;5050938;28;20040;-69
2023/12/14 03:52:48;;;;;;;19.58;7.32;;;4.40;99.90;;;;;;5046568;28;20041;-68
2023/12/14 03:55:17;;;;;;;16.17;7.40;;;4.50;99.90;;;;;;5053318;28;20060;-68
2023/12/14 03:57:43;;;;;;;17.55;7.32;;;4.50;99.90;;;;;;5046999;28;20044;-68
2023/12/14 04:00:13;;;;;;;19.10;7.78;;;4.40;99.90;;;;;;5052746;28;20091;-68
2023/12/14 04:02:39;;;;;;;15.65;7.63;;;4.50;99.90;;;;;;5050703;28;20080;-68
2023/12/14 04:05:08;;;;;;;16.00;6.93;;;4.50;99.90;;;;;;5057795;28;20130;-68
2023/12/14 04:07:40;;;;;;;15.40;6.65;;;4.40;99.90;;;;;;5049153;28;20049;-68
2023/12/14 04:10:09;;;;;;;15.98;7.25;;;4.40;99.90;;;;;;5057818;28;20064;-68
2023/12/14 04:12:39;;;;;;;18.07;7.30;;;4.40;99.90;;;;;;5041395;28;20074;-68
2023/12/14 04:15:06;;;;;;;17.98;7.07;;;4.40;99.90;;;;;;5065342;28;20064;-68
2023/12/14 04:17:32;;;;;;;13.90;6.63;;;4.40;99.90;;;;;;5062985;28;20052;-68
2023/12/14 04:19:58;;;;;;;15.65;7.13;;;4.40;99.90;;;;;;5060659;28;20040;-67
2023/12/14 04:22:23;;;;;;;16.15;6.82;;;4.40;99.90;;;;;;5059445;28;20078;-67
2023/12/14 04:24:51;;;;;;;14.98;6.93;;;4.40;99.90;;;;;;5069411;28;20059;-68
2023/12/14 04:27:16;;;;;;;14.30;6.40;;;4.40;99.90;;;;;;5051992;28;20040;-68
2023/12/14 04:29:42;;;;;;;15.20;6.50;;;4.40;99.90;;;;;;5059547;28;20783;-68
2023/12/14 04:32:08;;;;;;;11.80;6.18;;;4.40;99.90;;;;;;5056033;28;20416;-69
2023/12/14 04:34:34;;;;;;;16.60;7.55;;;4.30;99.90;;;;;;5051558;28;20831;-71
2023/12/14 04:36:59;;;;;;;16.13;6.18;;;4.20;99.90;;;;;;5039906;28;20131;-71
2023/12/14 04:39:25;;;;;;;14.63;6.93;;;4.20;99.90;;;;;;5058613;28;20121;-68
2023/12/14 04:41:55;;;;;;;12.75;6.30;;;4.10;99.90;;;;;;5071383;28;20068;-69
2023/12/14 04:44:21;;;;;;;14.88;7.43;;;4.10;99.90;;;;;;5051989;28;20043;-68
2023/12/14 04:46:50;;;;;;;15.38;6.75;;;4.10;99.90;;;;;;5056834;28;20048;-68
2023/12/14 04:49:16;;;;;;;13.25;6.90;;;4.20;99.90;;;;;;5060104;28;20079;-68
2023/12/14 04:51:42;;;;;;;13.55;6.45;;;4.20;99.90;;;;;;5068796;28;20457;-68
2023/12/14 04:54:08;;;;;;;15.95;6.78;;;4.20;99.90;;;;;;5062790;28;20029;-68
2023/12/14 04:56:34;;;;;;;15.35;6.47;;;4.20;99.90;;;;;;5056366;28;20473;-68
2023/12/14 04:58:59;;;;;;;20.40;7.72;;;4.20;99.90;;;;;;5048432;28;20094;-68
2023/12/14 05:01:26;;;;;;;16.58;7.97;;;4.20;99.90;;;;;;5058979;28;20036;-68
2023/12/14 05:03:55;;;;;;;18.52;7.38;;;4.30;99.90;;;;;;5065447;28;20401;-68
2023/12/14 05:06:21;;;;;;;14.13;7.57;;;4.30;99.90;;;;;;5049856;28;20155;-68
2023/12/14 05:08:47;;;;;;;18.73;7.35;;;4.30;99.90;;;;;;5049180;28;20134;-68
2023/12/14 05:11:13;;;;;;;15.48;6.88;;;4.20;99.90;;;;;;5050399;28;20041;-68
2023/12/14 05:13:39;;;;;;;13.60;7.13;;;4.30;99.90;;;;;;5052125;28;20040;-68
2023/12/14 05:16:06;;;;;;;20.80;6.95;;;4.30;99.90;;;;;;5051630;28;20108;-68
2023/12/14 05:18:31;;;;;;;14.93;7.03;;;4.20;99.90;;;;;;5034299;28;20630;-68
2023/12/14 05:20:57;;;;;;;16.38;7.53;;;4.20;99.90;;;;;;5047821;28;20037;-69
2023/12/14 05:23:23;;;;;;;14.68;7.20;;;4.20;99.90;;;;;;5054987;28;20123;-68
2023/12/14 05:25:49;;;;;;;15.77;7.82;;;4.20;99.90;;;;;;5045415;28;20071;-69
2023/12/14 05:28:15;;;;;;;13.63;6.50;;;4.30;99.90;;;;;;5049937;28;20037;-68
2023/12/14 05:30:41;;;;;;;18.05;7.53;;;4.30;99.90;;;;;;5054147;28;20587;-68
2023/12/14 05:33:07;;;;;;;17.48;7.20;;;4.20;99.90;;;;;;5058983;28;20037;-69
2023/12/14 05:35:32;;;;;;;16.52;7.53;;;4.30;99.90;;;;;;5068472;28;20461;-68
2023/12/14 05:37:58;;;;;;;16.92;7.43;;;4.30;99.90;;;;;;5055183;28;20040;-68
2023/12/14 05:40:24;;;;;;;16.55;7.82;;;4.30;99.90;;;;;;5055777;28;20048;-69
2023/12/14 05:42:49;;;;;;;16.00;7.32;;;4.30;99.90;;;;;;5037623;28;20032;-68
2023/12/14 05:45:15;;;;;;;16.10;7.50;;;4.30;99.90;;;;;;5037932;28;20033;-69
2023/12/14 05:47:41;;;;;;;22.00;9.18;;;4.30;99.90;;;;;;5054566;28;20057;-69
2023/12/14 05:50:09;;;;;;;19.60;7.60;;;4.30;99.90;;;;;;5041882;28;20041;-67
2023/12/14 05:52:36;;;;;;;16.48;8.27;;;4.30;99.90;;;;;;5052391;28;20091;-68
2023/12/14 05:55:02;;;;;;;17.77;7.90;;;4.30;99.90;;;;;;5056436;28;20033;-68
2023/12/14 05:57:27;;;;;;;16.80;7.60;;;4.30;99.90;;;;;;5065236;28;20056;-69
2023/12/14 05:59:53;;;;;;;19.48;7.75;;;4.30;99.90;;;;;;5059159;28;20045;-68
2023/12/14 06:02:19;;;;;;;17.85;7.80;;;4.30;99.90;;;;;;5056810;28;20037;-68
2023/12/14 06:04:44;;;;;;;15.85;8.13;;;4.30;99.90;;;;;;5055141;28;20728;-69
2023/12/14 06:07:10;;;;;;;18.95;8.20;;;4.20;99.90;;;;;;5062601;28;20037;-68
2023/12/14 06:09:35;;;;;;;16.15;7.38;;;4.30;99.90;;;;;;5052485;28;20068;-68
2023/12/14 06:12:02;;;;;;;15.95;7.32;;;4.30;99.90;;;;;;5052554;28;20048;-68
2023/12/14 06:14:29;;;;;;;18.88;8.15;;;4.30;99.90;;;;;;5061268;28;20044;-69
2023/12/14 06:16:54;;;;;;;17.13;7.45;;;4.30;99.90;;;;;;5052687;28;20461;-68
2023/12/14 06:19:20;;;;;;;16.05;7.15;;;4.20;99.90;;;;;;5054274;28;20085;-68
2023/12/14 06:21:46;;;;;;;15.48;7.25;;;4.30;99.90;;;;;;5046603;28;20062;-68
2023/12/14 06:24:11;;;;;;;14.68;7.05;;;4.20;99.90;;;;;;5054175;28;20037;-68
2023/12/14 06:26:42;;;;;;;19.52;8.57;;;4.20;99.90;;;;;;5059354;28;20043;-68
2023/12/14 06:29:09;;;;;;;14.57;7.05;;;4.20;99.90;;;;;;5051430;28;20041;-71
2023/12/14 06:31:35;;;;;;;15.23;7.95;;;4.20;99.90;;;;;;5059148;28;20049;-68
2023/12/14 06:34:03;;;;;;;15.52;7.85;;;4.20;99.90;;;;;;5065591;28;20044;-69
2023/12/14 06:36:29;;;;;;;15.82;7.28;;;4.20;99.90;;;;;;5038067;28;20049;-69
2023/12/14 06:38:55;;;;;;;15.63;7.28;;;4.20;99.90;;;;;;5047511;28;20112;-69
2023/12/14 06:41:22;;;;;;;15.20;8.10;;;4.20;99.90;;;;;;5050647;28;20037;-68
2023/12/14 06:43:49;;;;;;;17.45;8.23;;;4.20;99.90;;;;;;5052027;28;20051;-68
2023/12/14 06:46:18;;;;;;;21.48;8.27;;;4.20;99.90;;;;;;5044432;28;20037;-69
2023/12/14 06:48:44;;;;;;;20.67;8.45;;;4.20;99.90;;;;;;5041707;28;20052;-69
2023/12/14 06:51:10;;;;;;;18.67;8.07;;;4.20;99.90;;;;;;5053229;28;20414;-69
2023/12/14 06:53:37;;;;;;;19.27;8.05;;;4.20;99.90;;;;;;5051100;28;20029;-68
2023/12/14 06:56:03;;;;;;;20.00;8.45;;;4.20;99.90;;;;;;5060520;28;20041;-68
2023/12/14 06:58:29;;;;;;;19.63;8.60;;;4.20;99.90;;;;;;5052256;28;20044;-68
2023/12/14 07:00:55;;;;;;;18.85;8.38;;;4.20;99.90;;;;;;5046002;28;20155;-68
2023/12/14 07:03:20;;;;;;;16.08;7.78;;;4.20;99.90;;;;;;5056061;28;20778;-68
2023/12/14 07:05:46;;;;;;;18.75;9.05;;;4.20;99.90;;;;;;5053942;28;20044;-68
2023/12/14 07:08:12;;;;;;;21.30;9.38;;;4.20;99.90;;;;;;5051646;28;20115;-68
2023/12/14 07:10:38;;;;;;;19.35;9.10;;;4.20;99.90;;;;;;5054394;28;20037;-68
2023/12/14 07:13:04;;;;;;;17.92;9.18;;;4.20;99.90;;;;;;5051393;28;20056;-68
2023/12/14 07:15:29;;;;;;;19.58;9.13;;;4.30;99.90;;;;;;5046998;28;20037;-69
2023/12/14 07:17:55;;;;;;;17.63;8.57;;;4.10;99.90;;;;;;5049423;28;20040;-68
2023/12/14 07:20:21;;;;;;;18.55;8.30;;;4.20;99.90;;;;;;5062961;28;20687;-68
2023/12/14 07:22:47;;;;;;;19.15;8.05;;;4.20;99.90;;;;;;5059133;28;20393;-68
2023/12/14 07:25:12;;;;;;;19.75;8.75;;;4.20;99.90;;;;;;5056189;28;20040;-68
2023/12/14 07:27:38;;;;;;;18.58;8.70;;;4.30;99.90;;;;;;5060565;28;20044;-68
2023/12/14 07:30:04;;;;;;;19.75;7.75;;;4.30;99.90;;;;;;5062732;28;20049;-68
2023/12/14 07:32:29;;;;;;;19.48;8.18;;;4.30;99.90;;;;;;5064275;28;20047;-71
2023/12/14 07:34:55;;;;;;;17.63;8.30;;;4.30;99.90;;;;;;5046006;28;20044;-68
2023/12/14 07:37:21;;;;;;;20.52;9.07;;;4.30;99.90;;;;;;5066319;28;20059;-68
2023/12/14 07:39:46;;;;;;;18.15;8.52;;;4.30;99.90;;;;;;5046081;28;20639;-68
2023/12/14 07:42:17;;;;;;;19.00;8.38;;;4.40;99.90;;;;;;5069816;28;20041;-68
2023/12/14 07:44:42;;;;;;;18.38;8.27;;;4.30;99.90;;;;;;5058683;28;20067;-68
2023/12/14 07:47:08;;;;;;;17.83;8.68;;;4.40;99.90;;;;;;5057310;28;20488;-68
2023/12/14 07:49:34;;;;;;;24.08;8.80;;;4.30;99.90;;;;;;5058752;28;20036;-69
2023/12/14 07:52:00;;;;;;;18.38;8.40;;;4.40;99.90;;;;;;5060252;28;20094;-68
2023/12/14 07:54:26;;;;;;;21.17;9.27;;;4.40;99.90;;;;;;5066935;28;20040;-68
2023/12/14 07:56:52;;;;;;;19.85;8.25;;;4.40;99.90;;;;;;5048283;28;20041;-68
2023/12/14 07:59:18;;;;;;;22.38;9.35;;;4.40;99.90;;;;;;5054096;28;20072;-68
2023/12/14 08:01:43;;;;;;;21.38;9.38;;;4.50;99.90;;;;;;5034461;28;20090;-68
2023/12/14 08:04:11;;;;;;;23.95;9.75;;;4.40;99.90;;;;;;5057416;28;20040;-69
2023/12/14 08:06:39;;;;;;;21.15;9.15;;;4.40;99.90;;;;;;5050067;28;20041;-68
2023/12/14 08:09:05;;;;;;;20.05;8.95;;;4.40;99.90;;;;;;5053533;28;20052;-68
2023/12/14 08:11:31;;;;;;;23.65;9.55;;;4.50;99.90;;;;;;5057837;28;20041;-68
2023/12/14 08:13:58;;;;;;;22.08;8.88;;;4.50;99.90;;;;;;5054684;28;20029;-68
2023/12/14 08:16:23;;;;;;;20.38;8.85;;;4.50;99.90;;;;;;5079281;28;20435;-68
2023/12/14 08:18:49;;;;;;;22.27;9.38;;;4.40;99.90;;;;;;5058288;28;20043;-68
2023/12/14 08:21:15;;;;;;;19.88;9.13;;;4.50;99.90;;;;;;5053783;28;20376;-68
2023/12/14 08:23:41;;;;;;;23.63;8.93;;;4.50;99.90;;;;;;5061707;28;20043;-68
2023/12/14 08:26:11;;;;;;;23.13;9.38;;;4.50;99.90;;;;;;5067697;28;20439;-68
2023/12/14 08:28:37;;;;;;;21.95;9.68;;;4.50;99.90;;;;;;5065894;28;20032;-68
2023/12/14 08:31:04;;;;;;;19.92;9.13;;;4.50;99.90;;;;;;5066801;28;20059;-68
2023/12/14 08:33:29;;;;;;;22.15;9.23;;;4.50;99.90;;;;;;5074064;28;20378;-69
2023/12/14 08:35:55;;;;;;;24.13;10.73;;;4.50;99.90;;;;;;5065290;28;20150;-69
2023/12/14 08:38:21;;;;;;;26.73;9.82;;;4.60;99.90;;;;;;5061491;28;20519;-68
2023/12/14 08:40:47;;;;;;;20.85;9.05;;;4.50;99.90;;;;;;5065467;28;20427;-69
2023/12/14 08:43:12;;;;;;;23.10;9.73;;;4.60;99.90;;;;;;5063557;28;20567;-69
2023/12/14 08:45:38;;;;;;;23.85;10.65;;;4.60;99.90;;;;;;5052130;28;20048;-68
2023/12/14 08:48:04;;;;;;;24.20;9.40;;;4.60;99.90;;;;;;5054138;28;20051;-69
2023/12/14 08:50:30;;;;;;;24.38;9.90;;;4.60;99.90;;;;;;5044994;28;20028;-68
2023/12/14 08:52:58;;;;;;;27.55;9.85;;;4.60;99.90;;;;;;5051213;28;20036;-68
2023/12/14 08:55:24;;;;;;;22.42;9.25;;;4.60;99.90;;;;;;5048819;28;20044;-67
2023/12/14 08:57:50;;;;;;;25.77;10.70;;;4.60;99.90;;;;;;5060217;28;20041;-68
2023/12/14 09:00:17;;;;;;;26.63;10.00;;;4.60;99.90;;;;;;5058173;28;20059;-67
2023/12/14 09:02:45;;;;;;;27.65;10.25;;;4.60;99.90;;;;;;5054789;28;20099;-68
2023/12/14 09:05:12;;;;;;;20.75;9.20;;;4.70;99.90;;;;;;5065117;28;20086;-68
2023/12/14 09:07:37;;;;;;;30.48;10.93;;;4.70;99.90;;;;;;5068610;28;20040;-69
2023/12/14 09:10:03;;;;;;;26.77;10.40;;;4.70;99.90;;;;;;5070581;28;20073;-68
2023/12/14 09:12:29;;;;;;;25.95;10.52;;;4.70;99.90;;;;;;5064866;28;20123;-68
2023/12/14 09:14:55;;;;;;;29.65;10.43;;;4.70;99.90;;;;;;5061096;28;20045;-68
2023/12/14 09:17:20;;;;;;;25.63;10.18;;;4.70;99.90;;;;;;5068414;28;20040;-68
2023/12/14 09:19:46;;;;;;;28.65;10.18;;;4.70;99.90;;;;;;5068340;28;20067;-68
2023/12/14 09:22:12;;;;;;;30.08;11.85;;;4.70;99.90;;;;;;5071283;28;20044;-68
2023/12/14 09:24:37;;;;;;;27.50;11.00;;;4.80;99.90;;;;;;5065351;28;20397;-68
2023/12/14 09:27:03;;;;;;;26.90;11.05;;;4.70;99.90;;;;;;5061926;28;20386;-68
2023/12/14 09:29:29;;;;;;;29.42;12.13;;;4.80;99.90;;;;;;5053697;28;20088;-68
2023/12/14 09:31:54;;;;;;;27.80;11.02;;;4.80;99.90;;;;;;5053948;28;20366;-68
2023/12/14 09:34:20;;;;;;;29.77;11.23;;;4.80;99.90;;;;;;5063227;28;20037;-69
2023/12/14 09:36:45;;;;;;;25.00;10.23;;;4.80;99.90;;;;;;5057522;28;20037;-68
2023/12/14 09:39:11;;;;;;;24.50;9.95;;;4.90;99.90;;;;;;5067732;28;20041;-68
2023/12/14 09:41:38;;;;;;;23.75;9.80;;;4.90;99.90;;;;;;5073944;28;20043;-68
2023/12/14 09:44:05;;;;;;;24.15;9.98;;;4.90;99.90;;;;;;5073460;28;20387;-68
2023/12/14 09:46:32;;;;;;;21.02;10.00;;;4.90;99.90;;;;;;5046311;28;20423;-68
2023/12/14 09:48:59;;;;;;;29.48;10.95;;;4.90;99.90;;;;;;5036700;28;20040;-69
2023/12/14 09:51:26;;;;;;;26.05;10.98;;;5.00;99.90;;;;;;5071019;28;20111;-68
2023/12/14 09:53:57;;;;;;;25.55;9.85;;;5.00;99.90;;;;;;5074034;28;20123;-68
2023/12/14 09:56:27;;;;;;;29.20;11.32;;;5.10;99.90;;;;;;5065152;28;20052;-69
2023/12/14 09:58:53;;;;;;;29.98;9.82;;;5.00;99.90;;;;;;5058486;28;20118;-69
2023/12/14 10:01:26;;;;;;;27.23;10.32;;;5.10;99.90;;;;;;5073218;28;20468;-68
2023/12/14 10:04:12;;;;;;;26.92;10.10;;;5.10;99.90;;;;;;5057928;28;20036;-68
2023/12/14 10:06:39;;;;;;;26.80;10.73;;;5.20;99.90;;;;;;5068047;28;20037;-68
2023/12/14 10:09:09;;;;;;;22.73;9.57;;;5.10;99.90;;;;;;5043263;28;20036;-68
2023/12/14 10:11:38;;;;;;;29.30;11.23;;;5.10;99.90;;;;;;5073828;28;20480;-68
2023/12/14 10:14:19;;;;;;;28.13;10.40;;;5.10;99.90;;;;;;5073358;28;20123;-68
2023/12/14 10:16:45;;;;;;;25.05;11.35;;;4.90;99.90;;;;;;5072472;28;20511;-68
2023/12/14 10:19:11;;;;;;;28.33;10.95;;;5.00;99.90;;;;;;5058608;28;20037;-69
2023/12/14 10:21:36;;;;;;;29.58;11.40;;;4.90;99.90;;;;;;5053847;28;20036;-68
2023/12/14 10:24:02;;;;;;;25.50;11.50;;;5.00;99.90;;;;;;5056769;28;20384;-68
2023/12/14 10:26:28;;;;;;;26.23;10.23;;;5.00;99.90;;;;;;5070393;28;20320;-68
2023/12/14 10:28:54;;;;;;;25.10;10.25;;;5.00;99.90;;;;;;5052709;28;20138;-68
2023/12/14 10:31:21;;;;;;;24.67;9.68;;;5.00;99.90;;;;;;5063521;28;20044;-68
2023/12/14 10:33:47;;;;;;;26.42;11.32;;;5.00;99.90;;;;;;5085639;28;20115;-69
2023/12/14 10:36:22;;;;;;;24.23;10.57;;;5.10;99.90;;;;;;5077612;28;20518;-69
2023/12/14 10:38:52;;;;;;;26.25;10.48;;;5.10;99.90;;;;;;5062445;28;20071;-68
2023/12/14 10:41:18;;;;;;;25.55;10.88;;;5.10;99.90;;;;;;5066991;28;20720;-68
2023/12/14 10:43:44;;;;;;;23.90;11.07;;;5.10;99.90;;;;;;5064423;28;20044;-68
2023/12/14 10:46:11;;;;;;;28.88;10.82;;;5.10;99.90;;;;;;5064272;28;20044;-68
2023/12/14 10:48:37;;;;;;;25.70;10.52;;;5.10;99.90;;;;;;5054558;28;20032;-68
2023/12/14 10:51:05;;;;;;;24.73;10.48;;;5.20;99.90;;;;;;5062176;28;20036;-68
2023/12/14 10:53:32;;;;;;;24.08;10.70;;;5.20;99.90;;;;;;5072099;28;20127;-68
2023/12/14 10:56:00;;;;;;;26.10;12.02;;;5.20;99.90;;;;;;5090935;28;20048;-67
2023/12/14 10:58:26;;;;;;;26.35;10.70;;;5.20;99.90;;;;;;5078752;28;20055;-68
2023/12/14 11:01:01;;;;;;;25.27;10.95;;;5.20;99.90;;;;;;5058970;28;20404;-68
2023/12/14 11:03:32;;;;;;;23.58;10.70;;;5.20;99.90;;;;;;5059993;28;20043;-68
2023/12/14 11:06:00;;;;;;;25.92;10.38;;;5.20;99.90;;;;;;5044172;28;20050;-67
2023/12/14 11:08:26;;;;;;;24.63;11.35;;;5.20;99.90;;;;;;5047253;28;20032;-68
2023/12/14 11:11:10;;;;;;;27.17;11.40;;;5.30;99.90;;;;;;5072796;28;20043;-68
2023/12/14 11:13:36;;;;;;;25.58;10.48;;;5.20;99.90;;;;;;5052091;28;20081;-69
2023/12/14 11:16:01;;;;;;;23.50;9.27;;;5.30;99.90;;;;;;5072215;28;20075;-68
2023/12/14 11:18:27;;;;;;;22.60;9.95;;;5.30;99.90;;;;;;5065223;28;20502;-68
2023/12/14 11:21:00;;;;;;;21.00;10.43;;;5.30;99.90;;;;;;5068298;28;20036;-68
2023/12/14 11:23:26;;;;;;;22.13;10.45;;;5.40;99.90;;;;;;5056707;28;20044;-67
2023/12/14 11:25:53;;;;;;;22.92;9.25;;;5.40;99.90;;;;;;5075105;28;20047;-67
2023/12/14 11:28:22;;;;;;;25.77;9.85;;;5.40;99.90;;;;;;5073640;28;20036;-67
2023/12/14 11:30:48;;;;;;;25.95;10.25;;;5.40;99.90;;;;;;5082707;28;22838;-67
2023/12/14 11:33:15;;;;;;;21.08;9.10;;;5.40;99.90;;;;;;5074863;28;20063;-68
2023/12/14 11:35:40;;;;;;;30.65;9.50;;;5.40;99.90;;;;;;5051211;28;20028;-68
2023/12/14 11:38:13;;;;;;;24.15;9.48;;;5.40;99.90;;;;;;5069927;28;20544;-68
2023/12/14 11:40:39;;;;;;;21.25;9.20;;;5.30;99.90;;;;;;5055155;28;20086;-68
2023/12/14 11:43:09;;;;;;;21.45;8.70;;;5.40;99.90;;;;;;5065094;28;20032;-68
2023/12/14 11:45:39;;;;;;;21.30;9.20;;;5.30;99.90;;;;;;5060950;28;20040;-68
2023/12/14 11:48:07;;;;;;;20.73;8.60;;;5.40;99.90;;;;;;5050466;28;20072;-68
2023/12/14 11:50:33;;;;;;;22.27;8.32;;;5.30;99.90;;;;;;5064580;28;20047;-68
2023/12/14 11:53:05;;;;;;;18.63;8.45;;;5.40;99.90;;;;;;5048851;28;20032;-68
2023/12/14 11:55:34;;;;;;;20.70;9.07;;;5.40;99.90;;;;;;5057290;28;20381;-68
2023/12/14 11:57:59;;;;;;;22.40;10.38;;;5.50;99.90;;;;;;5062347;28;20060;-68
2023/12/14 12:00:28;;;;;;;27.30;10.15;;;5.50;99.90;;;;;;5063217;28;20040;-68
2023/12/14 12:03:19;;;;;;;21.33;10.63;;;5.50;99.90;;;;;;5052062;28;20032;-68
2023/12/14 12:05:47;;;;;;;23.17;11.15;;;5.60;99.90;;;;;;5045356;28;20036;-68
2023/12/14 12:08:15;;;;;;;26.35;11.02;;;5.60;99.90;;;;;;5066544;28;20040;-68
2023/12/14 12:10:42;;;;;;;25.77;10.73;;;5.60;99.90;;;;;;5066342;28;20166;-69
2023/12/14 12:13:13;;;;;;;22.27;10.75;;;5.70;99.90;;;;;;5046950;28;20039;-68
2023/12/14 12:15:38;;;;;;;;;;;5.70;99.90;;;;;;5055492;28;20037;-69
2023/12/14 12:18:06;;;;;;;22.13;10.00;;;5.70;99.90;;;;;;5070793;28;20007;-69
2023/12/14 12:20:32;;;;;;;23.10;10.00;;;5.70;99.90;;;;;;5061690;28;20044;-69
2023/12/14 12:22:58;;;;;;;24.77;9.70;;;5.70;99.90;;;;;;5048227;28;20040;-69
2023/12/14 12:25:24;;;;;;;21.52;9.63;;;5.70;99.90;;;;;;5067063;28;20071;-69
2023/12/14 12:27:49;;;;;;;24.95;10.00;;;5.60;99.90;;;;;;5077082;28;20504;-68
2023/12/14 12:30:15;;;;;;;20.27;9.73;;;5.70;99.90;;;;;;5064953;28;20676;-69
2023/12/14 12:32:41;;;;;;;29.73;10.43;;;5.60;99.90;;;;;;5078975;28;20124;-68
2023/12/14 12:35:08;;;;;;;22.67;10.45;;;5.60;99.90;;;;;;5068475;28;20046;-69
2023/12/14 12:37:34;;;;;;;25.30;9.45;;;5.60;99.90;;;;;;5048787;28;20036;-68
2023/12/14 12:39:59;;;;;;;24.83;9.02;;;5.60;99.90;;;;;;5066376;28;20562;-69
2023/12/14 12:42:25;;;;;;;23.35;9.93;;;5.60;99.90;;;;;;5055001;28;20047;-68